PRINT OUT SECTION, show »

METAR EPBY 211630Z 07011KT CAVOK 26/14 Q1012=

METAR EPGD 211630Z 05008KT CAVOK 18/09 Q1015 =

METAR EPKK 211630Z 09007KT CAVOK 28/18 Q1013 =

METAR EPKT 211630Z 10007KT CAVOK 29/18 Q1013 =

METAR EPLB 211630Z 13004KT CAVOK 26/14 Q1015 =

METAR EPLL 211630Z 11004KT 070V190 CAVOK 29/12 Q1013 =

METAR EPML 211630Z AUTO 07004KT 9999 NCD 29/15 Q1014=

METAR EPMO 211630Z 14003KT CAVOK 26/13 Q1014 =

METAR EPPO 211630Z 11008KT CAVOK 26/15 Q1012 =

METAR EPRA 211630Z 12007KT CAVOK 26/14 Q1015=

METAR EPRZ 211630Z 09006KT CAVOK 28/15 Q1015 =

METAR EPSC 211630Z 06004KT CAVOK 23/16 Q1011 =

METAR EPSY 211630Z 19006KT 130V260 CAVOK 26/10 Q1014=

METAR EPWA 211630Z 14007KT CAVOK 27/13 Q1015 NOSIG=

METAR EPWR 211630Z 11013KT CAVOK 30/18 Q1011 =

METAR EPZG 211630Z 05006KT CAVOK 26/18 Q1011 =
 METAR EPMO
Lokalizacja:EPMO Warszawa Modlin
Czas:16:30 UTC
Średni kierunek wiatru:140 °
Średnia prędkość wiatru:3 węzłów
CAVOK:Widzialność 10 km i więcej, zjawisko: NIL, zachmurzenie: NSC
Temperatura powietrza:26 °C
Temperatura punktu rosy:13 °C
Ciśnienie QNH:1014 hPa